首页
METAR-TAF:

METAR-TAF

机场 :

福岡機場

福岡, 日本

纬度: 33-35N, 经度: 130-27E, 海拔: 9米

当前天气观测

该预报发布于23分钟前的19:30 UTC
风速6节,风向西,在西南西转西北之间变化
温度 24°C
湿度 78%
气压 1004 hPa
能见度10公里或以上
散云层高于1700英尺

METAR: RJFF 151930Z AUTO 26006KT 230V300 9999 SCT017 24/20 Q1004 BECMG 22003KT RMK A2966

时间: 04:53 (19:53 UTC)

预报

该预报发布于2小时和44分钟前的17:09 UTC
预报有效从15日的 18点(UTC)到 17日的 00点(UTC)
风速4节,风向南转南东
能见度10公里或以上
少量云层高于1500英尺
散云层高于3000英尺
成为
从 15日的 22点(UTC)到 16日的 00点(UTC)
风速12节,风向西转西北
成为
从 16日的 12点(UTC)到 16日的 15点(UTC)
风速4节,风向南转南东

TAF: RJFF 151709Z 1518/1700 15004KT 9999 FEW015 SCT030 BECMG 1522/1600 30012KT BECMG 1612/1615 15004KT

超过4000个机场的气象观测和天气预报(METAR&TAF报告)。

可查询的气象台以黄色和红色小点在地图上表示。

将鼠标移到小点上方,可查看气象台名称。

然后点击查看天气观测和预报。

如需切换地图:点击带黑十字的绿色按钮放大地图;点击带横线的绿色按钮缩小地图;或者点击绿色箭头查看邻近地区的地图。


METAR-TAF: